sensor_id;sensor_type;location;lat;lon;timestamp;P1;durP1;ratioP1;P2;durP2;ratioP2
53267;SDS011;39156;51.176;6.738;2022-11-20T00:01:16;50.25;;;46.85;;
53267;SDS011;39156;51.176;6.738;2022-11-20T00:03:44;52.60;;;49.25;;
53267;SDS011;39156;51.176;6.738;2022-11-20T00:06:12;51.63;;;48.17;;
53267;SDS011;39156;51.176;6.738;2022-11-20T00:08:40;51.85;;;48.53;;
53267;SDS011;39156;51.176;6.738;2022-11-20T00:11:07;51.90;;;48.42;;
53267;SDS011;39156;51.176;6.738;2022-11-20T00:13:38;50.70;;;47.10;;
53267;SDS011;39156;51.176;6.738;2022-11-20T00:16:05;50.25;;;46.85;;
53267;SDS011;39156;51.176;6.738;2022-11-20T00:18:33;50.40;;;47.03;;
53267;SDS011;39156;51.176;6.738;2022-11-20T00:21:00;51.72;;;48.20;;
53267;SDS011;39156;51.176;6.738;2022-11-20T00:23:31;53.33;;;49.83;;
53267;SDS011;39156;51.176;6.738;2022-11-20T00:26:00;53.45;;;49.85;;
53267;SDS011;39156;51.176;6.738;2022-11-20T00:28:35;51.13;;;47.63;;
53267;SDS011;39156;51.176;6.738;2022-11-20T00:31:08;51.95;;;47.85;;
53267;SDS011;39156;51.176;6.738;2022-11-20T00:33:39;50.90;;;47.42;;
53267;SDS011;39156;51.176;6.738;2022-11-20T00:36:10;53.83;;;50.13;;
53267;SDS011;39156;51.176;6.738;2022-11-20T00:38:41;52.38;;;48.65;;
53267;SDS011;39156;51.176;6.738;2022-11-20T00:41:08;54.15;;;50.45;;
53267;SDS011;39156;51.176;6.738;2022-11-20T00:43:37;52.60;;;48.85;;
53267;SDS011;39156;51.176;6.738;2022-11-20T00:46:04;52.10;;;48.60;;
53267;SDS011;39156;51.176;6.738;2022-11-20T00:48:33;52.33;;;48.83;;
53267;SDS011;39156;51.176;6.738;2022-11-20T00:50:59;53.88;;;50.17;;
53267;SDS011;39156;51.176;6.738;2022-11-20T00:53:25;51.25;;;47.28;;
53267;SDS011;39156;51.176;6.738;2022-11-20T00:55:54;50.88;;;47.47;;
53267;SDS011;39156;51.176;6.738;2022-11-20T00:58:22;51.92;;;48.35;;
53267;SDS011;39156;51.176;6.738;2022-11-20T01:03:16;52.45;;;48.95;;
53267;SDS011;39156;51.176;6.738;2022-11-20T01:05:42;51.50;;;48.03;;
53267;SDS011;39156;51.176;6.738;2022-11-20T01:08:08;54.55;;;50.88;;
53267;SDS011;39156;51.176;6.738;2022-11-20T01:10:34;51.65;;;48.22;;
53267;SDS011;39156;51.176;6.738;2022-11-20T01:13:00;51.97;;;48.38;;
53267;SDS011;39156;51.176;6.738;2022-11-20T01:15:44;51.65;;;48.03;;
53267;SDS011;39156;51.176;6.738;2022-11-20T01:18:10;51.95;;;48.55;;
53267;SDS011;39156;51.176;6.738;2022-11-20T01:20:36;53.53;;;49.85;;
53267;SDS011;39156;51.176;6.738;2022-11-20T01:23:02;52.07;;;48.47;;
53267;SDS011;39156;51.176;6.738;2022-11-20T01:25:28;51.20;;;47.83;;
53267;SDS011;39156;51.176;6.738;2022-11-20T01:27:54;53.03;;;49.33;;
53267;SDS011;39156;51.176;6.738;2022-11-20T01:30:20;52.88;;;49.00;;
53267;SDS011;39156;51.176;6.738;2022-11-20T01:32:45;52.15;;;48.55;;
53267;SDS011;39156;51.176;6.738;2022-11-20T01:35:11;56.53;;;52.60;;
53267;SDS011;39156;51.176;6.738;2022-11-20T01:37:37;51.88;;;48.30;;
53267;SDS011;39156;51.176;6.738;2022-11-20T01:40:03;51.63;;;48.05;;
53267;SDS011;39156;51.176;6.738;2022-11-20T01:42:29;54.43;;;50.73;;
53267;SDS011;39156;51.176;6.738;2022-11-20T01:48:42;52.38;;;48.65;;
53267;SDS011;39156;51.176;6.738;2022-11-20T01:51:23;51.50;;;47.83;;
53267;SDS011;39156;51.176;6.738;2022-11-20T01:54:17;53.55;;;49.95;;
53267;SDS011;39156;51.176;6.738;2022-11-20T01:56:50;52.28;;;48.70;;
53267;SDS011;39156;51.176;6.738;2022-11-20T01:59:19;53.17;;;49.58;;
53267;SDS011;39156;51.176;6.738;2022-11-20T02:01:45;55.72;;;51.83;;
53267;SDS011;39156;51.176;6.738;2022-11-20T02:04:11;52.97;;;49.28;;
53267;SDS011;39156;51.176;6.738;2022-11-20T02:06:47;53.05;;;49.35;;
53267;SDS011;39156;51.176;6.738;2022-11-20T02:09:18;54.58;;;50.67;;
53267;SDS011;39156;51.176;6.738;2022-11-20T02:11:43;53.30;;;49.70;;
53267;SDS011;39156;51.176;6.738;2022-11-20T02:14:09;52.42;;;48.47;;
53267;SDS011;39156;51.176;6.738;2022-11-20T02:16:45;53.60;;;49.85;;
53267;SDS011;39156;51.176;6.738;2022-11-20T02:19:22;55.47;;;51.58;;
53267;SDS011;39156;51.176;6.738;2022-11-20T02:22:11;54.53;;;50.70;;
53267;SDS011;39156;51.176;6.738;2022-11-20T02:25:04;52.50;;;48.58;;
53267;SDS011;39156;51.176;6.738;2022-11-20T02:27:32;54.88;;;51.08;;
53267;SDS011;39156;51.176;6.738;2022-11-20T02:30:00;54.65;;;50.72;;
53267;SDS011;39156;51.176;6.738;2022-11-20T02:32:33;54.25;;;50.40;;
53267;SDS011;39156;51.176;6.738;2022-11-20T02:35:07;55.22;;;51.38;;
53267;SDS011;39156;51.176;6.738;2022-11-20T02:37:42;53.38;;;49.63;;
53267;SDS011;39156;51.176;6.738;2022-11-20T02:40:08;53.58;;;49.85;;
53267;SDS011;39156;51.176;6.738;2022-11-20T02:42:35;55.87;;;51.87;;
53267;SDS011;39156;51.176;6.738;2022-11-20T02:45:02;56.30;;;52.35;;
53267;SDS011;39156;51.176;6.738;2022-11-20T02:47:30;54.53;;;50.67;;
53267;SDS011;39156;51.176;6.738;2022-11-20T02:49:56;53.58;;;49.90;;
53267;SDS011;39156;51.176;6.738;2022-11-20T02:52:22;54.13;;;50.33;;
53267;SDS011;39156;51.176;6.738;2022-11-20T02:54:48;53.75;;;49.95;;
53267;SDS011;39156;51.176;6.738;2022-11-20T02:57:14;55.70;;;51.50;;
53267;SDS011;39156;51.176;6.738;2022-11-20T02:59:39;56.47;;;52.38;;
53267;SDS011;39156;51.176;6.738;2022-11-20T03:02:05;56.15;;;52.15;;
53267;SDS011;39156;51.176;6.738;2022-11-20T03:04:31;55.17;;;51.42;;
53267;SDS011;39156;51.176;6.738;2022-11-20T03:06:56;55.17;;;51.40;;
53267;SDS011;39156;51.176;6.738;2022-11-20T03:09:22;55.33;;;51.42;;
53267;SDS011;39156;51.176;6.738;2022-11-20T03:11:48;55.35;;;49.80;;
53267;SDS011;39156;51.176;6.738;2022-11-20T03:14:13;54.42;;;50.60;;
53267;SDS011;39156;51.176;6.738;2022-11-20T03:16:39;56.05;;;52.08;;
53267;SDS011;39156;51.176;6.738;2022-11-20T03:19:05;54.90;;;50.97;;
53267;SDS011;39156;51.176;6.738;2022-11-20T03:21:34;56.28;;;52.17;;
53267;SDS011;39156;51.176;6.738;2022-11-20T03:24:00;56.35;;;52.45;;
53267;SDS011;39156;51.176;6.738;2022-11-20T03:26:27;55.88;;;51.88;;
53267;SDS011;39156;51.176;6.738;2022-11-20T03:28:57;54.53;;;50.75;;
53267;SDS011;39156;51.176;6.738;2022-11-20T03:31:27;54.85;;;50.53;;
53267;SDS011;39156;51.176;6.738;2022-11-20T03:34:07;53.75;;;49.95;;
53267;SDS011;39156;51.176;6.738;2022-11-20T03:36:37;54.65;;;50.70;;
53267;SDS011;39156;51.176;6.738;2022-11-20T03:39:04;56.22;;;52.22;;
53267;SDS011;39156;51.176;6.738;2022-11-20T03:41:30;56.80;;;52.70;;
53267;SDS011;39156;51.176;6.738;2022-11-20T03:44:02;54.92;;;51.03;;
53267;SDS011;39156;51.176;6.738;2022-11-20T03:46:30;55.55;;;51.55;;
53267;SDS011;39156;51.176;6.738;2022-11-20T03:48:57;54.47;;;50.78;;
53267;SDS011;39156;51.176;6.738;2022-11-20T03:51:26;54.80;;;50.90;;
53267;SDS011;39156;51.176;6.738;2022-11-20T03:53:55;54.92;;;51.08;;
53267;SDS011;39156;51.176;6.738;2022-11-20T03:56:23;55.85;;;51.55;;
53267;SDS011;39156;51.176;6.738;2022-11-20T03:58:51;55.03;;;51.20;;
53267;SDS011;39156;51.176;6.738;2022-11-20T04:01:18;55.80;;;51.80;;
53267;SDS011;39156;51.176;6.738;2022-11-20T04:03:48;54.90;;;51.10;;
53267;SDS011;39156;51.176;6.738;2022-11-20T04:08:45;53.78;;;49.80;;
53267;SDS011;39156;51.176;6.738;2022-11-20T04:11:15;54.92;;;51.20;;
53267;SDS011;39156;51.176;6.738;2022-11-20T04:13:46;55.65;;;51.40;;
53267;SDS011;39156;51.176;6.738;2022-11-20T04:16:14;54.35;;;50.55;;
53267;SDS011;39156;51.176;6.738;2022-11-20T04:18:40;55.55;;;51.55;;
53267;SDS011;39156;51.176;6.738;2022-11-20T04:21:06;55.55;;;51.55;;
53267;SDS011;39156;51.176;6.738;2022-11-20T04:23:32;54.42;;;50.63;;
53267;SDS011;39156;51.176;6.738;2022-11-20T04:26:02;54.20;;;50.60;;
53267;SDS011;39156;51.176;6.738;2022-11-20T04:28:33;54.22;;;50.58;;
53267;SDS011;39156;51.176;6.738;2022-11-20T04:31:06;53.58;;;49.88;;
53267;SDS011;39156;51.176;6.738;2022-11-20T04:33:43;53.90;;;50.20;;
53267;SDS011;39156;51.176;6.738;2022-11-20T04:36:10;53.08;;;49.58;;
53267;SDS011;39156;51.176;6.738;2022-11-20T04:38:42;52.53;;;49.17;;
53267;SDS011;39156;51.176;6.738;2022-11-20T04:41:10;51.50;;;48.10;;
53267;SDS011;39156;51.176;6.738;2022-11-20T04:43:47;53.63;;;50.03;;
53267;SDS011;39156;51.176;6.738;2022-11-20T04:46:15;52.22;;;48.75;;
53267;SDS011;39156;51.176;6.738;2022-11-20T04:48:45;51.28;;;47.78;;
53267;SDS011;39156;51.176;6.738;2022-11-20T04:51:12;53.75;;;50.05;;
53267;SDS011;39156;51.176;6.738;2022-11-20T04:53:38;52.95;;;49.28;;
53267;SDS011;39156;51.176;6.738;2022-11-20T04:56:08;53.50;;;49.88;;
53267;SDS011;39156;51.176;6.738;2022-11-20T04:58:35;53.25;;;49.65;;
53267;SDS011;39156;51.176;6.738;2022-11-20T05:01:02;52.22;;;48.55;;
53267;SDS011;39156;51.176;6.738;2022-11-20T05:03:29;52.55;;;49.05;;
53267;SDS011;39156;51.176;6.738;2022-11-20T05:05:55;52.03;;;48.60;;
53267;SDS011;39156;51.176;6.738;2022-11-20T05:08:21;53.78;;;50.15;;
53267;SDS011;39156;51.176;6.738;2022-11-20T05:10:47;53.00;;;49.42;;
53267;SDS011;39156;51.176;6.738;2022-11-20T05:13:13;52.10;;;48.67;;
53267;SDS011;39156;51.176;6.738;2022-11-20T05:15:38;54.85;;;51.15;;
53267;SDS011;39156;51.176;6.738;2022-11-20T05:18:04;52.70;;;49.10;;
53267;SDS011;39156;51.176;6.738;2022-11-20T05:20:30;53.15;;;49.60;;
53267;SDS011;39156;51.176;6.738;2022-11-20T05:22:58;51.78;;;48.35;;
53267;SDS011;39156;51.176;6.738;2022-11-20T05:25:24;53.03;;;49.22;;
53267;SDS011;39156;51.176;6.738;2022-11-20T05:27:50;54.28;;;50.72;;
53267;SDS011;39156;51.176;6.738;2022-11-20T05:30:16;52.30;;;48.80;;
53267;SDS011;39156;51.176;6.738;2022-11-20T05:32:41;52.65;;;49.30;;
53267;SDS011;39156;51.176;6.738;2022-11-20T05:35:07;53.55;;;49.00;;
53267;SDS011;39156;51.176;6.738;2022-11-20T05:37:33;54.30;;;50.60;;
53267;SDS011;39156;51.176;6.738;2022-11-20T05:39:58;52.75;;;49.10;;
53267;SDS011;39156;51.176;6.738;2022-11-20T05:42:24;53.20;;;49.55;;
53267;SDS011;39156;51.176;6.738;2022-11-20T05:44:59;53.08;;;49.47;;
53267;SDS011;39156;51.176;6.738;2022-11-20T05:47:28;52.72;;;49.22;;
53267;SDS011;39156;51.176;6.738;2022-11-20T05:49:57;52.35;;;48.92;;
53267;SDS011;39156;51.176;6.738;2022-11-20T05:52:23;52.53;;;48.92;;
53267;SDS011;39156;51.176;6.738;2022-11-20T05:54:48;53.75;;;50.22;;
53267;SDS011;39156;51.176;6.738;2022-11-20T05:57:14;51.35;;;47.83;;
53267;SDS011;39156;51.176;6.738;2022-11-20T05:59:40;52.58;;;48.97;;
53267;SDS011;39156;51.176;6.738;2022-11-20T06:02:06;56.28;;;52.47;;
53267;SDS011;39156;51.176;6.738;2022-11-20T06:04:31;51.85;;;48.45;;
53267;SDS011;39156;51.176;6.738;2022-11-20T06:06:57;53.33;;;49.72;;
53267;SDS011;39156;51.176;6.738;2022-11-20T06:09:23;53.17;;;49.42;;
53267;SDS011;39156;51.176;6.738;2022-11-20T06:11:48;52.35;;;48.75;;
53267;SDS011;39156;51.176;6.738;2022-11-20T06:14:14;53.22;;;49.58;;
53267;SDS011;39156;51.176;6.738;2022-11-20T06:16:40;54.25;;;50.70;;
53267;SDS011;39156;51.176;6.738;2022-11-20T06:19:05;53.70;;;50.20;;
53267;SDS011;39156;51.176;6.738;2022-11-20T06:21:31;53.03;;;49.53;;
53267;SDS011;39156;51.176;6.738;2022-11-20T06:23:56;52.22;;;48.55;;
53267;SDS011;39156;51.176;6.738;2022-11-20T06:26:23;52.28;;;48.78;;
53267;SDS011;39156;51.176;6.738;2022-11-20T06:28:51;52.08;;;48.53;;
53267;SDS011;39156;51.176;6.738;2022-11-20T06:31:19;52.72;;;49.13;;
53267;SDS011;39156;51.176;6.738;2022-11-20T06:33:47;52.47;;;48.92;;
53267;SDS011;39156;51.176;6.738;2022-11-20T06:36:14;53.75;;;49.83;;
53267;SDS011;39156;51.176;6.738;2022-11-20T06:38:41;52.75;;;49.25;;
53267;SDS011;39156;51.176;6.738;2022-11-20T06:41:09;53.22;;;49.42;;
53267;SDS011;39156;51.176;6.738;2022-11-20T06:43:38;54.72;;;50.95;;
53267;SDS011;39156;51.176;6.738;2022-11-20T06:46:04;55.42;;;51.63;;
53267;SDS011;39156;51.176;6.738;2022-11-20T06:48:31;53.70;;;49.90;;
53267;SDS011;39156;51.176;6.738;2022-11-20T06:50:57;53.80;;;50.00;;
53267;SDS011;39156;51.176;6.738;2022-11-20T06:53:23;53.65;;;50.05;;
53267;SDS011;39156;51.176;6.738;2022-11-20T06:55:49;55.05;;;51.15;;
53267;SDS011;39156;51.176;6.738;2022-11-20T06:58:16;54.85;;;50.85;;
53267;SDS011;39156;51.176;6.738;2022-11-20T07:00:43;55.00;;;50.55;;
53267;SDS011;39156;51.176;6.738;2022-11-20T07:03:09;54.80;;;50.80;;
53267;SDS011;39156;51.176;6.738;2022-11-20T07:05:36;54.08;;;50.40;;
53267;SDS011;39156;51.176;6.738;2022-11-20T07:08:03;53.10;;;49.50;;
53267;SDS011;39156;51.176;6.738;2022-11-20T07:10:29;57.30;;;53.53;;
53267;SDS011;39156;51.176;6.738;2022-11-20T07:12:55;54.83;;;51.13;;
53267;SDS011;39156;51.176;6.738;2022-11-20T07:15:21;53.72;;;50.03;;
53267;SDS011;39156;51.176;6.738;2022-11-20T07:17:49;55.72;;;51.88;;
53267;SDS011;39156;51.176;6.738;2022-11-20T07:20:16;53.80;;;50.20;;
53267;SDS011;39156;51.176;6.738;2022-11-20T07:22:41;53.70;;;50.00;;
53267;SDS011;39156;51.176;6.738;2022-11-20T07:25:07;54.53;;;50.78;;
53267;SDS011;39156;51.176;6.738;2022-11-20T07:27:34;55.03;;;51.20;;
53267;SDS011;39156;51.176;6.738;2022-11-20T07:30:00;53.00;;;49.40;;
53267;SDS011;39156;51.176;6.738;2022-11-20T07:32:26;56.08;;;52.08;;
53267;SDS011;39156;51.176;6.738;2022-11-20T07:34:52;54.10;;;50.38;;
53267;SDS011;39156;51.176;6.738;2022-11-20T07:37:18;52.90;;;49.33;;
53267;SDS011;39156;51.176;6.738;2022-11-20T07:39:43;54.97;;;51.15;;
53267;SDS011;39156;51.176;6.738;2022-11-20T07:42:09;54.67;;;50.78;;
53267;SDS011;39156;51.176;6.738;2022-11-20T07:44:37;54.13;;;50.45;;
53267;SDS011;39156;51.176;6.738;2022-11-20T07:47:03;53.20;;;49.60;;
53267;SDS011;39156;51.176;6.738;2022-11-20T07:49:29;52.35;;;48.75;;
53267;SDS011;39156;51.176;6.738;2022-11-20T07:51:55;55.00;;;51.05;;
53267;SDS011;39156;51.176;6.738;2022-11-20T07:54:21;54.20;;;50.40;;
53267;SDS011;39156;51.176;6.738;2022-11-20T07:56:48;57.65;;;53.58;;
53267;SDS011;39156;51.176;6.738;2022-11-20T07:59:14;52.87;;;49.27;;
53267;SDS011;39156;51.176;6.738;2022-11-20T08:01:40;53.35;;;49.72;;
53267;SDS011;39156;51.176;6.738;2022-11-20T08:04:07;53.67;;;50.00;;
53267;SDS011;39156;51.176;6.738;2022-11-20T08:06:34;55.50;;;51.25;;
53267;SDS011;39156;51.176;6.738;2022-11-20T08:09:01;53.88;;;50.17;;
53267;SDS011;39156;51.176;6.738;2022-11-20T08:11:27;54.20;;;50.35;;
53267;SDS011;39156;51.176;6.738;2022-11-20T08:14:11;54.28;;;50.58;;
53267;SDS011;39156;51.176;6.738;2022-11-20T08:16:40;54.80;;;50.97;;
53267;SDS011;39156;51.176;6.738;2022-11-20T08:19:12;55.63;;;51.83;;
53267;SDS011;39156;51.176;6.738;2022-11-20T08:21:42;55.28;;;51.47;;
53267;SDS011;39156;51.176;6.738;2022-11-20T08:24:08;55.95;;;52.05;;
53267;SDS011;39156;51.176;6.738;2022-11-20T08:26:35;56.72;;;52.83;;
53267;SDS011;39156;51.176;6.738;2022-11-20T08:29:02;53.63;;;49.92;;
53267;SDS011;39156;51.176;6.738;2022-11-20T08:31:29;55.45;;;51.58;;
53267;SDS011;39156;51.176;6.738;2022-11-20T08:33:55;54.83;;;51.00;;
53267;SDS011;39156;51.176;6.738;2022-11-20T08:36:21;55.65;;;51.72;;
53267;SDS011;39156;51.176;6.738;2022-11-20T08:38:52;57.55;;;53.55;;
53267;SDS011;39156;51.176;6.738;2022-11-20T08:41:20;54.63;;;50.83;;
53267;SDS011;39156;51.176;6.738;2022-11-20T08:43:50;56.65;;;52.63;;
53267;SDS011;39156;51.176;6.738;2022-11-20T08:46:22;54.95;;;51.03;;
53267;SDS011;39156;51.176;6.738;2022-11-20T08:48:49;54.22;;;50.42;;
53267;SDS011;39156;51.176;6.738;2022-11-20T08:51:16;55.25;;;51.35;;
53267;SDS011;39156;51.176;6.738;2022-11-20T08:53:42;57.15;;;52.85;;
53267;SDS011;39156;51.176;6.738;2022-11-20T08:56:08;55.17;;;51.20;;
53267;SDS011;39156;51.176;6.738;2022-11-20T08:58:34;52.70;;;49.03;;
53267;SDS011;39156;51.176;6.738;2022-11-20T09:01:00;55.75;;;51.85;;
53267;SDS011;39156;51.176;6.738;2022-11-20T09:03:26;54.92;;;51.00;;
53267;SDS011;39156;51.176;6.738;2022-11-20T09:05:58;53.35;;;49.45;;
53267;SDS011;39156;51.176;6.738;2022-11-20T09:08:30;54.80;;;51.10;;
53267;SDS011;39156;51.176;6.738;2022-11-20T09:10:56;56.42;;;51.17;;
53267;SDS011;39156;51.176;6.738;2022-11-20T09:13:24;55.28;;;51.30;;
53267;SDS011;39156;51.176;6.738;2022-11-20T09:15:55;54.72;;;50.92;;
53267;SDS011;39156;51.176;6.738;2022-11-20T09:18:26;53.85;;;50.03;;
53267;SDS011;39156;51.176;6.738;2022-11-20T09:23:25;51.95;;;48.35;;
53267;SDS011;39156;51.176;6.738;2022-11-20T09:25:52;52.95;;;49.25;;
53267;SDS011;39156;51.176;6.738;2022-11-20T09:28:20;54.55;;;50.75;;
53267;SDS011;39156;51.176;6.738;2022-11-20T09:30:46;51.78;;;48.22;;
53267;SDS011;39156;51.176;6.738;2022-11-20T09:33:12;51.83;;;48.20;;
53267;SDS011;39156;51.176;6.738;2022-11-20T09:35:37;51.42;;;47.88;;
53267;SDS011;39156;51.176;6.738;2022-11-20T09:38:04;53.65;;;49.75;;
53267;SDS011;39156;51.176;6.738;2022-11-20T09:40:31;50.55;;;47.15;;
53267;SDS011;39156;51.176;6.738;2022-11-20T09:51:46;45.38;;;42.38;;
53267;SDS011;39156;51.176;6.738;2022-11-20T09:54:26;47.58;;;44.60;;
53267;SDS011;39156;51.176;6.738;2022-11-20T09:57:00;52.33;;;48.42;;
53267;SDS011;39156;51.176;6.738;2022-11-20T09:59:37;50.20;;;46.63;;
53267;SDS011;39156;51.176;6.738;2022-11-20T10:04:59;51.80;;;47.88;;
53267;SDS011;39156;51.176;6.738;2022-11-20T10:07:38;49.83;;;46.10;;
53267;SDS011;39156;51.176;6.738;2022-11-20T10:10:35;51.72;;;48.22;;
53267;SDS011;39156;51.176;6.738;2022-11-20T10:13:35;48.15;;;45.05;;
53267;SDS011;39156;51.176;6.738;2022-11-20T10:19:05;51.40;;;47.80;;
53267;SDS011;39156;51.176;6.738;2022-11-20T10:21:57;50.08;;;46.90;;
53267;SDS011;39156;51.176;6.738;2022-11-20T10:27:46;50.60;;;47.15;;
53267;SDS011;39156;51.176;6.738;2022-11-20T10:30:38;52.35;;;48.65;;
53267;SDS011;39156;51.176;6.738;2022-11-20T10:35:47;51.27;;;47.87;;
53267;SDS011;39156;51.176;6.738;2022-11-20T10:38:53;50.38;;;46.65;;
53267;SDS011;39156;51.176;6.738;2022-11-20T10:41:26;51.05;;;47.53;;
53267;SDS011;39156;51.176;6.738;2022-11-20T10:44:09;50.13;;;46.72;;
53267;SDS011;39156;51.176;6.738;2022-11-20T10:47:04;53.03;;;48.97;;
53267;SDS011;39156;51.176;6.738;2022-11-20T10:49:39;52.60;;;48.95;;
53267;SDS011;39156;51.176;6.738;2022-11-20T10:55:06;49.22;;;45.85;;
53267;SDS011;39156;51.176;6.738;2022-11-20T11:01:04;54.40;;;50.75;;
53267;SDS011;39156;51.176;6.738;2022-11-20T11:03:52;52.00;;;48.20;;
53267;SDS011;39156;51.176;6.738;2022-11-20T11:06:31;54.20;;;50.30;;
53267;SDS011;39156;51.176;6.738;2022-11-20T11:09:08;51.70;;;48.10;;
53267;SDS011;39156;51.176;6.738;2022-11-20T11:11:41;54.92;;;50.85;;
53267;SDS011;39156;51.176;6.738;2022-11-20T11:14:13;53.28;;;49.47;;
53267;SDS011;39156;51.176;6.738;2022-11-20T11:19:22;51.30;;;47.30;;
53267;SDS011;39156;51.176;6.738;2022-11-20T11:21:50;52.20;;;48.22;;
53267;SDS011;39156;51.176;6.738;2022-11-20T11:24:20;51.58;;;47.83;;
53267;SDS011;39156;51.176;6.738;2022-11-20T11:27:00;51.95;;;48.20;;
53267;SDS011;39156;51.176;6.738;2022-11-20T11:29:30;52.78;;;48.97;;
53267;SDS011;39156;51.176;6.738;2022-11-20T11:32:03;50.97;;;47.30;;
53267;SDS011;39156;51.176;6.738;2022-11-20T11:34:39;51.05;;;47.45;;
53267;SDS011;39156;51.176;6.738;2022-11-20T11:37:09;50.78;;;47.13;;
53267;SDS011;39156;51.176;6.738;2022-11-20T11:39:41;53.78;;;50.08;;
53267;SDS011;39156;51.176;6.738;2022-11-20T11:42:10;52.50;;;48.97;;
53267;SDS011;39156;51.176;6.738;2022-11-20T11:44:44;51.65;;;48.08;;
53267;SDS011;39156;51.176;6.738;2022-11-20T11:47:31;51.47;;;47.97;;
53267;SDS011;39156;51.176;6.738;2022-11-20T11:50:14;51.08;;;47.47;;
53267;SDS011;39156;51.176;6.738;2022-11-20T11:58:44;53.42;;;49.42;;
53267;SDS011;39156;51.176;6.738;2022-11-20T12:04:15;53.00;;;49.15;;
53267;SDS011;39156;51.176;6.738;2022-11-20T12:10:15;52.08;;;48.28;;
53267;SDS011;39156;51.176;6.738;2022-11-20T12:12:52;53.28;;;49.53;;
53267;SDS011;39156;51.176;6.738;2022-11-20T12:15:29;49.92;;;46.50;;
53267;SDS011;39156;51.176;6.738;2022-11-20T12:17:56;52.75;;;48.83;;
53267;SDS011;39156;51.176;6.738;2022-11-20T12:20:24;52.55;;;48.75;;
53267;SDS011;39156;51.176;6.738;2022-11-20T12:25:43;50.35;;;46.75;;
53267;SDS011;39156;51.176;6.738;2022-11-20T12:28:32;51.72;;;48.13;;
53267;SDS011;39156;51.176;6.738;2022-11-20T12:31:23;51.95;;;48.35;;
53267;SDS011;39156;51.176;6.738;2022-11-20T12:34:34;52.45;;;48.65;;
53267;SDS011;39156;51.176;6.738;2022-11-20T12:37:29;53.38;;;49.50;;
53267;SDS011;39156;51.176;6.738;2022-11-20T12:43:28;51.05;;;47.15;;
53267;SDS011;39156;51.176;6.738;2022-11-20T12:49:37;55.22;;;51.00;;
53267;SDS011;39156;51.176;6.738;2022-11-20T12:57:49;56.05;;;51.80;;
53267;SDS011;39156;51.176;6.738;2022-11-20T13:00:21;55.70;;;51.58;;
53267;SDS011;39156;51.176;6.738;2022-11-20T13:06:08;55.15;;;51.10;;
53267;SDS011;39156;51.176;6.738;2022-11-20T13:08:42;58.45;;;54.22;;
53267;SDS011;39156;51.176;6.738;2022-11-20T13:11:24;58.47;;;54.08;;
53267;SDS011;39156;51.176;6.738;2022-11-20T13:14:09;54.28;;;50.38;;
53267;SDS011;39156;51.176;6.738;2022-11-20T13:17:11;59.25;;;54.58;;
53267;SDS011;39156;51.176;6.738;2022-11-20T13:19:45;55.58;;;51.47;;
53267;SDS011;39156;51.176;6.738;2022-11-20T13:22:23;56.75;;;52.38;;
53267;SDS011;39156;51.176;6.738;2022-11-20T13:24:54;58.00;;;53.65;;
53267;SDS011;39156;51.176;6.738;2022-11-20T13:27:21;58.78;;;54.25;;
53267;SDS011;39156;51.176;6.738;2022-11-20T13:30:33;57.05;;;52.72;;
53267;SDS011;39156;51.176;6.738;2022-11-20T13:33:04;55.22;;;50.80;;
53267;SDS011;39156;51.176;6.738;2022-11-20T13:35:40;55.40;;;51.10;;
53267;SDS011;39156;51.176;6.738;2022-11-20T13:38:08;60.33;;;55.80;;
53267;SDS011;39156;51.176;6.738;2022-11-20T13:43:27;59.38;;;54.53;;
53267;SDS011;39156;51.176;6.738;2022-11-20T13:46:04;55.95;;;51.65;;
53267;SDS011;39156;51.176;6.738;2022-11-20T13:48:42;54.42;;;50.28;;
53267;SDS011;39156;51.176;6.738;2022-11-20T13:51:12;56.45;;;52.05;;
53267;SDS011;39156;51.176;6.738;2022-11-20T14:00:45;57.30;;;52.60;;
53267;SDS011;39156;51.176;6.738;2022-11-20T14:03:20;58.22;;;53.45;;
53267;SDS011;39156;51.176;6.738;2022-11-20T14:05:51;59.38;;;54.03;;
53267;SDS011;39156;51.176;6.738;2022-11-20T14:08:23;60.75;;;55.80;;
53267;SDS011;39156;51.176;6.738;2022-11-20T14:11:21;60.30;;;55.50;;
53267;SDS011;39156;51.176;6.738;2022-11-20T14:16:28;56.33;;;52.03;;
53267;SDS011;39156;51.176;6.738;2022-11-20T14:18:57;55.13;;;50.80;;
53267;SDS011;39156;51.176;6.738;2022-11-20T14:21:46;54.38;;;50.08;;
53267;SDS011;39156;51.176;6.738;2022-11-20T14:24:31;54.72;;;50.50;;
53267;SDS011;39156;51.176;6.738;2022-11-20T14:26:57;55.42;;;51.05;;
53267;SDS011;39156;51.176;6.738;2022-11-20T14:29:26;53.65;;;49.40;;
53267;SDS011;39156;51.176;6.738;2022-11-20T14:32:03;53.20;;;49.10;;
53267;SDS011;39156;51.176;6.738;2022-11-20T14:34:30;54.03;;;50.10;;
53267;SDS011;39156;51.176;6.738;2022-11-20T14:37:01;53.92;;;49.92;;
53267;SDS011;39156;51.176;6.738;2022-11-20T14:39:34;54.75;;;50.75;;
53267;SDS011;39156;51.176;6.738;2022-11-20T14:42:15;55.25;;;51.05;;
53267;SDS011;39156;51.176;6.738;2022-11-20T14:44:49;54.45;;;50.35;;
53267;SDS011;39156;51.176;6.738;2022-11-20T14:47:21;54.08;;;49.85;;
53267;SDS011;39156;51.176;6.738;2022-11-20T14:49:54;52.22;;;48.45;;
53267;SDS011;39156;51.176;6.738;2022-11-20T14:52:21;52.75;;;48.60;;
53267;SDS011;39156;51.176;6.738;2022-11-20T14:54:50;54.10;;;49.95;;
53267;SDS011;39156;51.176;6.738;2022-11-20T15:02:45;54.92;;;50.53;;
53267;SDS011;39156;51.176;6.738;2022-11-20T15:05:14;55.58;;;51.30;;
53267;SDS011;39156;51.176;6.738;2022-11-20T15:07:42;52.88;;;48.90;;
53267;SDS011;39156;51.176;6.738;2022-11-20T15:12:52;52.83;;;48.92;;
53267;SDS011;39156;51.176;6.738;2022-11-20T15:15:21;53.53;;;49.58;;
53267;SDS011;39156;51.176;6.738;2022-11-20T15:17:58;52.15;;;48.05;;
53267;SDS011;39156;51.176;6.738;2022-11-20T15:20:27;53.53;;;49.43;;
53267;SDS011;39156;51.176;6.738;2022-11-20T15:22:57;53.40;;;49.35;;
53267;SDS011;39156;51.176;6.738;2022-11-20T15:25:22;52.58;;;48.72;;
53267;SDS011;39156;51.176;6.738;2022-11-20T15:27:50;50.45;;;46.88;;
53267;SDS011;39156;51.176;6.738;2022-11-20T15:30:21;52.88;;;49.10;;
53267;SDS011;39156;51.176;6.738;2022-11-20T15:32:48;52.10;;;48.35;;
53267;SDS011;39156;51.176;6.738;2022-11-20T15:35:14;52.17;;;48.47;;
53267;SDS011;39156;51.176;6.738;2022-11-20T15:37:41;51.95;;;48.28;;
53267;SDS011;39156;51.176;6.738;2022-11-20T15:40:08;50.13;;;46.53;;
53267;SDS011;39156;51.176;6.738;2022-11-20T15:42:34;53.35;;;49.22;;
53267;SDS011;39156;51.176;6.738;2022-11-20T15:45:00;54.88;;;50.80;;
53267;SDS011;39156;51.176;6.738;2022-11-20T15:47:28;53.60;;;49.80;;
53267;SDS011;39156;51.176;6.738;2022-11-20T15:49:57;50.55;;;46.65;;
53267;SDS011;39156;51.176;6.738;2022-11-20T15:52:23;54.10;;;49.70;;
53267;SDS011;39156;51.176;6.738;2022-11-20T15:54:48;51.85;;;47.97;;
53267;SDS011;39156;51.176;6.738;2022-11-20T15:57:14;51.78;;;48.08;;
53267;SDS011;39156;51.176;6.738;2022-11-20T15:59:40;53.78;;;49.47;;
53267;SDS011;39156;51.176;6.738;2022-11-20T16:02:13;54.20;;;50.27;;
53267;SDS011;39156;51.176;6.738;2022-11-20T16:04:40;53.90;;;49.60;;
53267;SDS011;39156;51.176;6.738;2022-11-20T16:07:06;51.72;;;48.03;;
53267;SDS011;39156;51.176;6.738;2022-11-20T16:09:32;54.88;;;50.92;;
53267;SDS011;39156;51.176;6.738;2022-11-20T16:11:58;51.80;;;48.00;;